sensor_id;sensor_type;location;lat;lon;timestamp;pressure;altitude;pressure_sealevel;temperature;humidity
61109;BME280;46995;55.740;37.402;2024-03-08T00:01:18;99634.25;;;-3.17;61.29
61109;BME280;46995;55.740;37.402;2024-03-08T00:03:44;99627.53;;;-3.24;60.94
61109;BME280;46995;55.740;37.402;2024-03-08T00:06:10;99625.94;;;-3.28;61.47
61109;BME280;46995;55.740;37.402;2024-03-08T00:08:35;99625.16;;;-3.30;60.90
61109;BME280;46995;55.740;37.402;2024-03-08T00:11:01;99615.78;;;-3.34;62.36
61109;BME280;46995;55.740;37.402;2024-03-08T00:13:26;99625.53;;;-3.44;61.78
61109;BME280;46995;55.740;37.402;2024-03-08T00:15:52;99609.31;;;-3.48;62.08
61109;BME280;46995;55.740;37.402;2024-03-08T00:18:18;99599.81;;;-3.47;61.68
61109;BME280;46995;55.740;37.402;2024-03-08T00:20:43;99597.28;;;-3.49;61.68
61109;BME280;46995;55.740;37.402;2024-03-08T00:23:10;99605.06;;;-3.50;61.09
61109;BME280;46995;55.740;37.402;2024-03-08T00:25:36;99598.97;;;-3.48;62.22
61109;BME280;46995;55.740;37.402;2024-03-08T00:28:02;99595.34;;;-3.40;61.74
61109;BME280;46995;55.740;37.402;2024-03-08T00:30:27;99589.06;;;-3.32;61.10
61109;BME280;46995;55.740;37.402;2024-03-08T00:32:53;99584.59;;;-3.27;61.71
61109;BME280;46995;55.740;37.402;2024-03-08T00:35:18;99584.47;;;-3.22;60.97
61109;BME280;46995;55.740;37.402;2024-03-08T00:37:44;99583.72;;;-3.26;61.34
61109;BME280;46995;55.740;37.402;2024-03-08T00:40:13;99583.00;;;-3.31;61.44
61109;BME280;46995;55.740;37.402;2024-03-08T00:42:38;99575.34;;;-3.34;61.75
61109;BME280;46995;55.740;37.402;2024-03-08T00:45:05;99575.34;;;-3.34;62.65
61109;BME280;46995;55.740;37.402;2024-03-08T00:47:31;99561.41;;;-3.28;62.00
61109;BME280;46995;55.740;37.402;2024-03-08T00:49:57;99555.25;;;-3.24;61.82
61109;BME280;46995;55.740;37.402;2024-03-08T00:52:23;99557.75;;;-3.21;61.94
61109;BME280;46995;55.740;37.402;2024-03-08T00:54:51;99561.09;;;-3.18;61.16
61109;BME280;46995;55.740;37.402;2024-03-08T00:57:17;99561.84;;;-3.14;61.60
61109;BME280;46995;55.740;37.402;2024-03-08T00:59:43;99553.97;;;-3.10;61.23
61109;BME280;46995;55.740;37.402;2024-03-08T01:02:09;99545.38;;;-3.10;61.53
61109;BME280;46995;55.740;37.402;2024-03-08T01:04:35;99545.50;;;-3.15;61.79
61109;BME280;46995;55.740;37.402;2024-03-08T01:07:01;99542.94;;;-3.15;62.15
61109;BME280;46995;55.740;37.402;2024-03-08T01:09:27;99535.31;;;-3.19;61.85
61109;BME280;46995;55.740;37.402;2024-03-08T01:11:53;99529.44;;;-3.24;62.15
61109;BME280;46995;55.740;37.402;2024-03-08T01:14:22;99528.72;;;-3.29;62.83
61109;BME280;46995;55.740;37.402;2024-03-08T01:16:48;99538.34;;;-3.34;62.34
61109;BME280;46995;55.740;37.402;2024-03-08T01:19:14;99533.31;;;-3.39;62.88
61109;BME280;46995;55.740;37.402;2024-03-08T01:21:40;99530.03;;;-3.44;62.29
61109;BME280;46995;55.740;37.402;2024-03-08T01:24:06;99529.13;;;-3.42;62.62
61109;BME280;46995;55.740;37.402;2024-03-08T01:26:32;99531.63;;;-3.40;62.46
61109;BME280;46995;55.740;37.402;2024-03-08T01:29:00;99526.44;;;-3.38;61.77
61109;BME280;46995;55.740;37.402;2024-03-08T01:31:29;99533.09;;;-3.31;61.95
61109;BME280;46995;55.740;37.402;2024-03-08T01:33:55;99535.59;;;-3.28;62.17
61109;BME280;46995;55.740;37.402;2024-03-08T01:36:21;99534.59;;;-3.24;62.64
61109;BME280;46995;55.740;37.402;2024-03-08T01:38:47;99526.78;;;-3.21;62.54
61109;BME280;46995;55.740;37.402;2024-03-08T01:41:12;99525.88;;;-3.20;62.48
61109;BME280;46995;55.740;37.402;2024-03-08T01:43:38;99526.81;;;-3.23;61.93
61109;BME280;46995;55.740;37.402;2024-03-08T01:46:04;99521.69;;;-3.24;62.07
61109;BME280;46995;55.740;37.402;2024-03-08T01:48:31;99520.91;;;-3.26;62.87
61109;BME280;46995;55.740;37.402;2024-03-08T01:50:58;99515.69;;;-3.25;62.09
61109;BME280;46995;55.740;37.402;2024-03-08T01:53:24;99526.13;;;-3.29;62.18
61109;BME280;46995;55.740;37.402;2024-03-08T01:55:50;99528.16;;;-3.39;63.22
61109;BME280;46995;55.740;37.402;2024-03-08T01:58:17;99530.22;;;-3.50;63.37
61109;BME280;46995;55.740;37.402;2024-03-08T02:00:46;99539.25;;;-3.65;63.01
61109;BME280;46995;55.740;37.402;2024-03-08T02:03:17;99528.38;;;-3.76;63.69
61109;BME280;46995;55.740;37.402;2024-03-08T02:05:43;99527.09;;;-3.91;64.22
61109;BME280;46995;55.740;37.402;2024-03-08T02:08:09;99533.38;;;-4.01;64.25
61109;BME280;46995;55.740;37.402;2024-03-08T02:10:40;99517.31;;;-4.10;63.62
61109;BME280;46995;55.740;37.402;2024-03-08T02:13:07;99520.22;;;-4.22;64.48
61109;BME280;46995;55.740;37.402;2024-03-08T02:18:37;99506.72;;;-4.32;63.52
61109;BME280;46995;55.740;37.402;2024-03-08T02:21:05;99514.34;;;-4.28;63.67
61109;BME280;46995;55.740;37.402;2024-03-08T02:23:30;99504.91;;;-4.29;64.19
61109;BME280;46995;55.740;37.402;2024-03-08T02:25:57;99509.16;;;-4.26;63.88
61109;BME280;46995;55.740;37.402;2024-03-08T02:28:23;99513.56;;;-4.30;64.64
61109;BME280;46995;55.740;37.402;2024-03-08T02:30:50;99510.44;;;-4.42;64.64
61109;BME280;46995;55.740;37.402;2024-03-08T02:33:17;99505.47;;;-4.50;65.20
61109;BME280;46995;55.740;37.402;2024-03-08T02:35:46;99509.91;;;-4.55;64.33
61109;BME280;46995;55.740;37.402;2024-03-08T02:38:13;99503.13;;;-4.59;65.06
61109;BME280;46995;55.740;37.402;2024-03-08T02:40:42;99500.66;;;-4.62;64.43
61109;BME280;46995;55.740;37.402;2024-03-08T02:43:08;99509.16;;;-4.60;64.35
61109;BME280;46995;55.740;37.402;2024-03-08T02:45:34;99512.88;;;-4.70;64.99
61109;BME280;46995;55.740;37.402;2024-03-08T02:48:00;99515.56;;;-4.75;64.74
61109;BME280;46995;55.740;37.402;2024-03-08T02:50:26;99506.13;;;-4.76;64.54
61109;BME280;46995;55.740;37.402;2024-03-08T02:52:51;99506.09;;;-4.74;64.85
61109;BME280;46995;55.740;37.402;2024-03-08T02:55:17;99490.50;;;-4.68;64.21
61109;BME280;46995;55.740;37.402;2024-03-08T02:57:43;99507.09;;;-4.80;65.22
61109;BME280;46995;55.740;37.402;2024-03-08T03:00:09;99499.59;;;-4.89;64.94
61109;BME280;46995;55.740;37.402;2024-03-08T03:02:35;99499.78;;;-4.96;65.97
61109;BME280;46995;55.740;37.402;2024-03-08T03:05:01;99499.72;;;-4.93;66.30
61109;BME280;46995;55.740;37.402;2024-03-08T03:07:35;99495.44;;;-4.94;65.89
61109;BME280;46995;55.740;37.402;2024-03-08T03:10:01;99494.56;;;-4.93;66.16
61109;BME280;46995;55.740;37.402;2024-03-08T03:12:27;99488.59;;;-4.95;66.04
61109;BME280;46995;55.740;37.402;2024-03-08T03:14:52;99481.81;;;-4.98;66.66
61109;BME280;46995;55.740;37.402;2024-03-08T03:17:18;99475.88;;;-5.01;67.73
61109;BME280;46995;55.740;37.402;2024-03-08T03:19:45;99482.72;;;-5.00;67.16
61109;BME280;46995;55.740;37.402;2024-03-08T03:22:12;99476.69;;;-4.99;66.96
61109;BME280;46995;55.740;37.402;2024-03-08T03:24:38;99466.97;;;-4.88;66.98
61109;BME280;46995;55.740;37.402;2024-03-08T03:27:07;99465.19;;;-4.86;68.62
61109;BME280;46995;55.740;37.402;2024-03-08T03:29:39;99456.44;;;-4.79;66.63
61109;BME280;46995;55.740;37.402;2024-03-08T03:32:08;99451.38;;;-4.82;68.28
61109;BME280;46995;55.740;37.402;2024-03-08T03:34:33;99458.19;;;-4.81;68.80
61109;BME280;46995;55.740;37.402;2024-03-08T03:37:02;99445.44;;;-4.86;67.19
61109;BME280;46995;55.740;37.402;2024-03-08T03:39:28;99446.38;;;-4.88;67.75
61109;BME280;46995;55.740;37.402;2024-03-08T03:41:57;99448.13;;;-4.90;68.76
61109;BME280;46995;55.740;37.402;2024-03-08T03:44:23;99454.06;;;-4.87;67.84
61109;BME280;46995;55.740;37.402;2024-03-08T03:46:49;99447.00;;;-4.80;68.79
61109;BME280;46995;55.740;37.402;2024-03-08T03:49:16;99443.28;;;-4.68;67.17
61109;BME280;46995;55.740;37.402;2024-03-08T03:51:42;99448.41;;;-4.67;68.27
61109;BME280;46995;55.740;37.402;2024-03-08T03:54:08;99450.97;;;-4.67;67.58
61109;BME280;46995;55.740;37.402;2024-03-08T03:56:33;99458.13;;;-4.78;69.68
61109;BME280;46995;55.740;37.402;2024-03-08T03:58:59;99454.75;;;-4.80;68.99
61109;BME280;46995;55.740;37.402;2024-03-08T04:01:25;99453.97;;;-4.84;68.25
61109;BME280;46995;55.740;37.402;2024-03-08T04:03:50;99449.44;;;-4.74;67.87
61109;BME280;46995;55.740;37.402;2024-03-08T04:06:16;99450.13;;;-4.67;67.63
61109;BME280;46995;55.740;37.402;2024-03-08T04:08:41;99448.47;;;-4.70;67.87
61109;BME280;46995;55.740;37.402;2024-03-08T04:11:08;99440.47;;;-4.59;67.88
61109;BME280;46995;55.740;37.402;2024-03-08T04:13:34;99441.78;;;-4.45;67.47
61109;BME280;46995;55.740;37.402;2024-03-08T04:15:59;99432.81;;;-4.30;66.64
61109;BME280;46995;55.740;37.402;2024-03-08T04:18:25;99436.81;;;-4.20;65.96
61109;BME280;46995;55.740;37.402;2024-03-08T04:20:51;99435.63;;;-4.08;67.18
61109;BME280;46995;55.740;37.402;2024-03-08T04:23:16;99425.91;;;-4.00;66.04
61109;BME280;46995;55.740;37.402;2024-03-08T04:25:43;99428.41;;;-3.97;66.59
61109;BME280;46995;55.740;37.402;2024-03-08T04:28:09;99428.59;;;-4.03;67.67
61109;BME280;46995;55.740;37.402;2024-03-08T04:30:38;99425.31;;;-4.08;66.99
61109;BME280;46995;55.740;37.402;2024-03-08T04:33:05;99422.72;;;-4.08;67.95
61109;BME280;46995;55.740;37.402;2024-03-08T04:35:31;99426.19;;;-4.09;67.34
61109;BME280;46995;55.740;37.402;2024-03-08T04:37:57;99432.13;;;-4.07;67.60
61109;BME280;46995;55.740;37.402;2024-03-08T04:40:25;99429.22;;;-4.24;67.97
61109;BME280;46995;55.740;37.402;2024-03-08T04:42:50;99424.97;;;-4.27;67.63
61109;BME280;46995;55.740;37.402;2024-03-08T04:45:17;99426.66;;;-4.26;67.83
61109;BME280;46995;55.740;37.402;2024-03-08T04:47:42;99428.66;;;-4.36;68.24
61109;BME280;46995;55.740;37.402;2024-03-08T04:50:08;99424.72;;;-4.49;67.79
61109;BME280;46995;55.740;37.402;2024-03-08T04:52:34;99424.56;;;-4.43;68.65
61109;BME280;46995;55.740;37.402;2024-03-08T04:55:19;99405.63;;;-4.42;69.50
61109;BME280;46995;55.740;37.402;2024-03-08T04:57:46;99419.13;;;-4.34;68.07
61109;BME280;46995;55.740;37.402;2024-03-08T05:00:12;99408.69;;;-4.29;67.42
61109;BME280;46995;55.740;37.402;2024-03-08T05:02:38;99408.75;;;-4.31;67.52
61109;BME280;46995;55.740;37.402;2024-03-08T05:05:04;99416.69;;;-4.38;68.39
61109;BME280;46995;55.740;37.402;2024-03-08T05:07:31;99405.88;;;-4.51;68.91
61109;BME280;46995;55.740;37.402;2024-03-08T05:09:58;99412.97;;;-4.59;69.02
61109;BME280;46995;55.740;37.402;2024-03-08T05:12:24;99397.66;;;-4.65;68.60
61109;BME280;46995;55.740;37.402;2024-03-08T05:14:49;99399.31;;;-4.61;69.43
61109;BME280;46995;55.740;37.402;2024-03-08T05:17:15;99396.44;;;-4.50;68.25
61109;BME280;46995;55.740;37.402;2024-03-08T05:19:42;99398.50;;;-4.34;68.55
61109;BME280;46995;55.740;37.402;2024-03-08T05:22:09;99398.28;;;-4.24;67.54
61109;BME280;46995;55.740;37.402;2024-03-08T05:24:34;99391.50;;;-4.29;67.87
61109;BME280;46995;55.740;37.402;2024-03-08T05:27:00;99383.06;;;-4.34;68.04
61109;BME280;46995;55.740;37.402;2024-03-08T05:29:27;99389.84;;;-4.30;68.12
61109;BME280;46995;55.740;37.402;2024-03-08T05:31:54;99387.19;;;-4.28;67.67
61109;BME280;46995;55.740;37.402;2024-03-08T05:34:20;99385.25;;;-4.20;67.94
61109;BME280;46995;55.740;37.402;2024-03-08T05:36:47;99391.00;;;-4.12;69.17
61109;BME280;46995;55.740;37.402;2024-03-08T05:39:17;99383.53;;;-4.19;71.06
61109;BME280;46995;55.740;37.402;2024-03-08T05:41:43;99381.13;;;-4.25;71.77
61109;BME280;46995;55.740;37.402;2024-03-08T05:44:09;99382.72;;;-4.21;73.53
61109;BME280;46995;55.740;37.402;2024-03-08T05:46:36;99383.28;;;-4.12;71.89
61109;BME280;46995;55.740;37.402;2024-03-08T05:49:02;99378.91;;;-4.08;70.88
61109;BME280;46995;55.740;37.402;2024-03-08T05:51:33;99393.47;;;-4.07;70.43
61109;BME280;46995;55.740;37.402;2024-03-08T05:54:02;99391.13;;;-4.15;70.21
61109;BME280;46995;55.740;37.402;2024-03-08T05:56:37;99397.56;;;-4.30;70.21
61109;BME280;46995;55.740;37.402;2024-03-08T05:59:02;99395.88;;;-4.31;70.64
61109;BME280;46995;55.740;37.402;2024-03-08T06:01:28;99390.59;;;-4.26;69.13
61109;BME280;46995;55.740;37.402;2024-03-08T06:03:54;99396.13;;;-4.10;69.71
61109;BME280;46995;55.740;37.402;2024-03-08T06:06:24;99384.88;;;-4.08;70.83
61109;BME280;46995;55.740;37.402;2024-03-08T06:08:50;99391.38;;;-3.95;68.65
61109;BME280;46995;55.740;37.402;2024-03-08T06:11:16;99391.19;;;-3.89;68.26
61109;BME280;46995;55.740;37.402;2024-03-08T06:13:48;99390.81;;;-3.76;69.50
61109;BME280;46995;55.740;37.402;2024-03-08T06:16:15;99386.00;;;-3.61;69.51
61109;BME280;46995;55.740;37.402;2024-03-08T06:18:41;99394.97;;;-3.45;68.32
61109;BME280;46995;55.740;37.402;2024-03-08T06:21:06;99390.41;;;-3.36;67.94
61109;BME280;46995;55.740;37.402;2024-03-08T06:23:32;99386.78;;;-3.31;68.20
61109;BME280;46995;55.740;37.402;2024-03-08T06:25:58;99386.53;;;-3.23;67.65
61109;BME280;46995;55.740;37.402;2024-03-08T06:28:24;99377.66;;;-3.15;67.86
61109;BME280;46995;55.740;37.402;2024-03-08T06:30:50;99376.69;;;-3.12;68.41
61109;BME280;46995;55.740;37.402;2024-03-08T06:33:17;99384.94;;;-3.27;69.41
61109;BME280;46995;55.740;37.402;2024-03-08T06:35:43;99374.81;;;-3.33;69.20
61109;BME280;46995;55.740;37.402;2024-03-08T06:38:09;99379.78;;;-3.27;68.08
61109;BME280;46995;55.740;37.402;2024-03-08T06:40:36;99367.69;;;-3.25;69.10
61109;BME280;46995;55.740;37.402;2024-03-08T06:43:02;99375.44;;;-3.25;68.71
61109;BME280;46995;55.740;37.402;2024-03-08T06:45:32;99377.50;;;-3.10;68.59
61109;BME280;46995;55.740;37.402;2024-03-08T06:48:00;99371.91;;;-2.98;68.13
61109;BME280;46995;55.740;37.402;2024-03-08T06:50:26;99364.63;;;-2.87;68.73
61109;BME280;46995;55.740;37.402;2024-03-08T06:52:52;99368.69;;;-2.80;67.90
61109;BME280;46995;55.740;37.402;2024-03-08T06:55:19;99373.06;;;-2.82;68.56
61109;BME280;46995;55.740;37.402;2024-03-08T06:57:45;99372.59;;;-2.93;68.17
61109;BME280;46995;55.740;37.402;2024-03-08T07:00:11;99372.59;;;-2.93;68.85
61109;BME280;46995;55.740;37.402;2024-03-08T07:02:44;99366.50;;;-2.90;68.29
61109;BME280;46995;55.740;37.402;2024-03-08T07:05:11;99363.78;;;-2.87;68.94
61109;BME280;46995;55.740;37.402;2024-03-08T07:07:36;99359.16;;;-2.78;69.96
61109;BME280;46995;55.740;37.402;2024-03-08T07:10:02;99362.19;;;-2.67;67.47
61109;BME280;46995;55.740;37.402;2024-03-08T07:12:29;99360.66;;;-2.47;68.36
61109;BME280;46995;55.740;37.402;2024-03-08T07:14:54;99357.16;;;-2.23;66.73
61109;BME280;46995;55.740;37.402;2024-03-08T07:17:20;99362.72;;;-2.10;66.75
61109;BME280;46995;55.740;37.402;2024-03-08T07:19:45;99365.38;;;-2.12;66.98
61109;BME280;46995;55.740;37.402;2024-03-08T07:22:11;99364.97;;;-2.25;67.54
61109;BME280;46995;55.740;37.402;2024-03-08T07:24:37;99363.81;;;-2.16;67.63
61109;BME280;46995;55.740;37.402;2024-03-08T07:27:23;99363.44;;;-2.07;67.55
61109;BME280;46995;55.740;37.402;2024-03-08T07:29:48;99369.88;;;-1.94;67.63
61109;BME280;46995;55.740;37.402;2024-03-08T07:32:14;99370.69;;;-1.93;67.63
61109;BME280;46995;55.740;37.402;2024-03-08T07:34:50;99373.66;;;-2.04;67.60
61109;BME280;46995;55.740;37.402;2024-03-08T07:37:17;99374.25;;;-2.19;68.03
61109;BME280;46995;55.740;37.402;2024-03-08T07:39:43;99372.69;;;-2.23;68.36
61109;BME280;46995;55.740;37.402;2024-03-08T07:42:11;99372.31;;;-2.14;67.86
61109;BME280;46995;55.740;37.402;2024-03-08T07:44:37;99379.31;;;-2.16;67.74
61109;BME280;46995;55.740;37.402;2024-03-08T07:47:03;99372.47;;;-2.17;67.71
61109;BME280;46995;55.740;37.402;2024-03-08T07:49:29;99372.91;;;-2.06;67.55
61109;BME280;46995;55.740;37.402;2024-03-08T07:51:55;99369.41;;;-2.05;67.43
61109;BME280;46995;55.740;37.402;2024-03-08T07:54:23;99363.31;;;-2.04;67.20
61109;BME280;46995;55.740;37.402;2024-03-08T07:56:48;99365.00;;;-2.03;67.95
61109;BME280;46995;55.740;37.402;2024-03-08T07:59:16;99357.03;;;-1.97;67.54
61109;BME280;46995;55.740;37.402;2024-03-08T08:01:42;99354.56;;;-2.00;66.94
61109;BME280;46995;55.740;37.402;2024-03-08T08:04:09;99351.84;;;-1.97;67.31
61109;BME280;46995;55.740;37.402;2024-03-08T08:06:38;99349.94;;;-1.92;67.51
61109;BME280;46995;55.740;37.402;2024-03-08T08:09:06;99349.16;;;-1.72;66.74
61109;BME280;46995;55.740;37.402;2024-03-08T08:11:35;99341.09;;;-1.64;66.88
61109;BME280;46995;55.740;37.402;2024-03-08T08:14:00;99345.25;;;-1.60;66.52
61109;BME280;46995;55.740;37.402;2024-03-08T08:16:26;99345.00;;;-1.54;67.31
61109;BME280;46995;55.740;37.402;2024-03-08T08:18:52;99340.75;;;-1.35;65.83
61109;BME280;46995;55.740;37.402;2024-03-08T08:21:18;99348.41;;;-1.32;66.26
61109;BME280;46995;55.740;37.402;2024-03-08T08:23:43;99346.84;;;-1.36;66.51
61109;BME280;46995;55.740;37.402;2024-03-08T08:26:10;99345.41;;;-1.43;66.74
61109;BME280;46995;55.740;37.402;2024-03-08T08:28:36;99343.59;;;-1.41;67.23
61109;BME280;46995;55.740;37.402;2024-03-08T08:31:02;99341.69;;;-1.36;66.48
61109;BME280;46995;55.740;37.402;2024-03-08T08:33:32;99345.03;;;-1.34;66.82
61109;BME280;46995;55.740;37.402;2024-03-08T08:35:58;99338.28;;;-1.38;66.83
61109;BME280;46995;55.740;37.402;2024-03-08T08:38:23;99331.22;;;-1.35;67.18
61109;BME280;46995;55.740;37.402;2024-03-08T08:40:50;99332.34;;;-1.20;66.26
61109;BME280;46995;55.740;37.402;2024-03-08T08:43:15;99344.47;;;-1.20;66.83
61109;BME280;46995;55.740;37.402;2024-03-08T08:45:46;99342.66;;;-1.18;66.79
61109;BME280;46995;55.740;37.402;2024-03-08T08:48:14;99339.94;;;-1.15;66.76
61109;BME280;46995;55.740;37.402;2024-03-08T08:50:39;99344.78;;;-1.08;65.99
61109;BME280;46995;55.740;37.402;2024-03-08T08:53:06;99339.41;;;-1.03;66.16
61109;BME280;46995;55.740;37.402;2024-03-08T08:55:33;99332.22;;;-0.97;66.57
61109;BME280;46995;55.740;37.402;2024-03-08T08:58:01;99336.25;;;-0.90;66.22
61109;BME280;46995;55.740;37.402;2024-03-08T09:00:28;99335.84;;;-0.80;66.10
61109;BME280;46995;55.740;37.402;2024-03-08T09:02:57;99340.13;;;-0.79;65.95
61109;BME280;46995;55.740;37.402;2024-03-08T09:05:23;99331.03;;;-0.69;66.07
61109;BME280;46995;55.740;37.402;2024-03-08T09:08:08;99333.09;;;-0.57;66.09
61109;BME280;46995;55.740;37.402;2024-03-08T09:10:34;99332.50;;;-0.44;65.85
61109;BME280;46995;55.740;37.402;2024-03-08T09:13:18;99337.88;;;-0.29;64.91
61109;BME280;46995;55.740;37.402;2024-03-08T09:15:43;99326.81;;;-0.33;65.20
61109;BME280;46995;55.740;37.402;2024-03-08T09:18:09;99326.09;;;-0.36;65.45
61109;BME280;46995;55.740;37.402;2024-03-08T09:20:35;99322.75;;;-0.38;65.53
61109;BME280;46995;55.740;37.402;2024-03-08T09:23:02;99324.28;;;-0.34;65.50
61109;BME280;46995;55.740;37.402;2024-03-08T09:25:29;99331.84;;;-0.30;65.33
61109;BME280;46995;55.740;37.402;2024-03-08T09:27:55;99323.00;;;-0.26;65.53
61109;BME280;46995;55.740;37.402;2024-03-08T09:30:21;99326.41;;;-0.24;65.84
61109;BME280;46995;55.740;37.402;2024-03-08T09:32:48;99333.00;;;-0.17;65.54
61109;BME280;46995;55.740;37.402;2024-03-08T09:35:16;99330.59;;;-0.03;65.52
61109;BME280;46995;55.740;37.402;2024-03-08T09:37:42;99321.53;;;0.06;65.66
61109;BME280;46995;55.740;37.402;2024-03-08T09:40:07;99315.72;;;0.01;66.81
61109;BME280;46995;55.740;37.402;2024-03-08T09:42:43;99321.69;;;0.03;65.96
61109;BME280;46995;55.740;37.402;2024-03-08T09:45:09;99317.53;;;0.18;65.74
61109;BME280;46995;55.740;37.402;2024-03-08T09:47:41;99324.59;;;0.33;65.07
61109;BME280;46995;55.740;37.402;2024-03-08T09:50:07;99316.66;;;0.36;65.21
61109;BME280;46995;55.740;37.402;2024-03-08T09:52:35;99319.72;;;0.44;64.76
61109;BME280;46995;55.740;37.402;2024-03-08T09:55:02;99314.38;;;0.47;64.99
61109;BME280;46995;55.740;37.402;2024-03-08T09:57:27;99319.09;;;0.39;65.01
61109;BME280;46995;55.740;37.402;2024-03-08T09:59:54;99320.53;;;0.27;65.45
61109;BME280;46995;55.740;37.402;2024-03-08T10:02:19;99323.41;;;0.21;65.52
61109;BME280;46995;55.740;37.402;2024-03-08T10:04:46;99320.91;;;0.20;66.05
61109;BME280;46995;55.740;37.402;2024-03-08T10:07:13;99321.84;;;0.36;66.05
61109;BME280;46995;55.740;37.402;2024-03-08T10:09:38;99319.47;;;0.31;65.30
61109;BME280;46995;55.740;37.402;2024-03-08T10:12:05;99311.16;;;0.42;65.54
61109;BME280;46995;55.740;37.402;2024-03-08T10:14:34;99307.34;;;0.49;65.23
61109;BME280;46995;55.740;37.402;2024-03-08T10:17:05;99309.34;;;0.61;64.71
61109;BME280;46995;55.740;37.402;2024-03-08T10:19:31;99310.09;;;0.63;65.04
61109;BME280;46995;55.740;37.402;2024-03-08T10:21:59;99301.41;;;0.64;64.95
61109;BME280;46995;55.740;37.402;2024-03-08T10:24:25;99303.00;;;0.67;64.90
61109;BME280;46995;55.740;37.402;2024-03-08T10:27:00;99298.44;;;0.72;65.03
61109;BME280;46995;55.740;37.402;2024-03-08T10:29:30;99294.28;;;0.85;64.65
61109;BME280;46995;55.740;37.402;2024-03-08T10:31:57;99302.56;;;0.93;64.27
61109;BME280;46995;55.740;37.402;2024-03-08T10:34:23;99291.06;;;0.97;64.14
61109;BME280;46995;55.740;37.402;2024-03-08T10:36:50;99296.72;;;1.05;64.14
61109;BME280;46995;55.740;37.402;2024-03-08T10:39:23;99291.50;;;1.05;64.49
61109;BME280;46995;55.740;37.402;2024-03-08T10:41:52;99301.41;;;0.99;64.67
61109;BME280;46995;55.740;37.402;2024-03-08T10:46:59;99302.19;;;0.83;64.72
61109;BME280;46995;55.740;37.402;2024-03-08T10:49:30;99303.47;;;0.75;65.32
61109;BME280;46995;55.740;37.402;2024-03-08T10:52:03;99291.31;;;0.75;65.25
61109;BME280;46995;55.740;37.402;2024-03-08T10:54:32;99300.53;;;0.64;65.28
61109;BME280;46995;55.740;37.402;2024-03-08T10:56:59;99296.19;;;0.64;65.10
61109;BME280;46995;55.740;37.402;2024-03-08T10:59:26;99295.59;;;0.59;65.28
61109;BME280;46995;55.740;37.402;2024-03-08T11:01:53;99299.94;;;0.59;65.24
61109;BME280;46995;55.740;37.402;2024-03-08T11:04:19;99291.72;;;0.68;64.95
61109;BME280;46995;55.740;37.402;2024-03-08T11:06:48;99296.81;;;0.69;64.72
61109;BME280;46995;55.740;37.402;2024-03-08T11:09:30;99285.19;;;0.59;65.02
61109;BME280;46995;55.740;37.402;2024-03-08T11:12:42;99288.81;;;0.57;65.45
61109;BME280;46995;55.740;37.402;2024-03-08T11:14:44;99282.13;;;0.68;65.47
61109;BME280;46995;55.740;37.402;2024-03-08T11:17:10;99281.38;;;0.83;65.57
61109;BME280;46995;55.740;37.402;2024-03-08T11:19:35;99291.13;;;0.96;64.61
61109;BME280;46995;55.740;37.402;2024-03-08T11:22:02;99292.06;;;0.95;64.37
61109;BME280;46995;55.740;37.402;2024-03-08T11:24:36;99289.69;;;0.90;64.76
61109;BME280;46995;55.740;37.402;2024-03-08T11:27:03;99291.06;;;0.80;64.82
61109;BME280;46995;55.740;37.402;2024-03-08T11:29:33;99289.00;;;0.69;65.19
61109;BME280;46995;55.740;37.402;2024-03-08T11:34:46;99287.13;;;0.73;65.38
61109;BME280;46995;55.740;37.402;2024-03-08T11:37:18;99288.56;;;0.78;65.78
61109;BME280;46995;55.740;37.402;2024-03-08T11:39:50;99283.75;;;0.88;65.70
61109;BME280;46995;55.740;37.402;2024-03-08T11:42:18;99282.97;;;1.03;64.93
61109;BME280;46995;55.740;37.402;2024-03-08T11:44:45;99282.84;;;1.22;64.54
61109;BME280;46995;55.740;37.402;2024-03-08T11:47:11;99279.38;;;1.39;64.59
61109;BME280;46995;55.740;37.402;2024-03-08T11:49:37;99276.00;;;1.37;64.29
61109;BME280;46995;55.740;37.402;2024-03-08T11:52:04;99276.56;;;1.26;64.64
61109;BME280;46995;55.740;37.402;2024-03-08T11:54:32;99282.53;;;1.28;64.58
61109;BME280;46995;55.740;37.402;2024-03-08T11:56:59;99277.34;;;1.44;64.46
61109;BME280;46995;55.740;37.402;2024-03-08T11:59:29;99277.88;;;1.50;64.17
61109;BME280;46995;55.740;37.402;2024-03-08T12:01:59;99275.69;;;1.58;64.24
61109;BME280;46995;55.740;37.402;2024-03-08T12:04:28;99277.56;;;1.56;64.04
61109;BME280;46995;55.740;37.402;2024-03-08T12:06:53;99278.47;;;1.55;64.23
61109;BME280;46995;55.740;37.402;2024-03-08T12:09:19;99279.22;;;1.57;64.22
61109;BME280;46995;55.740;37.402;2024-03-08T12:11:47;99288.44;;;1.63;64.13
61109;BME280;46995;55.740;37.402;2024-03-08T12:14:14;99280.00;;;1.75;63.72
61109;BME280;46995;55.740;37.402;2024-03-08T12:16:41;99282.66;;;1.74;63.65
61109;BME280;46995;55.740;37.402;2024-03-08T12:19:07;99280.25;;;1.70;63.68
61109;BME280;46995;55.740;37.402;2024-03-08T12:21:35;99287.72;;;1.77;63.72
61109;BME280;46995;55.740;37.402;2024-03-08T12:24:05;99285.88;;;1.79;63.58
61109;BME280;46995;55.740;37.402;2024-03-08T12:26:31;99288.13;;;1.85;63.58
61109;BME280;46995;55.740;37.402;2024-03-08T12:31:50;99288.47;;;1.79;63.44
61109;BME280;46995;55.740;37.402;2024-03-08T12:34:17;99292.50;;;1.68;63.30
61109;BME280;46995;55.740;37.402;2024-03-08T12:36:50;99288.94;;;1.54;63.69
61109;BME280;46995;55.740;37.402;2024-03-08T12:39:17;99291.97;;;1.46;63.77
61109;BME280;46995;55.740;37.402;2024-03-08T12:41:49;99293.31;;;1.53;63.77
61109;BME280;46995;55.740;37.402;2024-03-08T12:44:17;99285.25;;;1.58;63.33
61109;BME280;46995;55.740;37.402;2024-03-08T12:46:44;99294.81;;;1.57;63.77
61109;BME280;46995;55.740;37.402;2024-03-08T12:49:10;99290.81;;;1.67;63.38
61109;BME280;46995;55.740;37.402;2024-03-08T12:51:37;99302.31;;;1.63;63.45
61109;BME280;46995;55.740;37.402;2024-03-08T12:54:06;99293.03;;;1.42;63.54
61109;BME280;46995;55.740;37.402;2024-03-08T12:56:35;99284.88;;;1.33;63.74
61109;BME280;46995;55.740;37.402;2024-03-08T12:59:06;99282.53;;;1.28;63.90
61109;BME280;46995;55.740;37.402;2024-03-08T13:01:33;99279.16;;;1.26;63.84
61109;BME280;46995;55.740;37.402;2024-03-08T13:03:59;99284.47;;;1.24;64.13